createdAt,value
2019-03-28T00:01:12.815Z,9.60
2019-03-28T00:03:43.092Z,9.50
2019-03-28T00:06:13.284Z,9.60
2019-03-28T00:08:43.563Z,9.60
2019-03-28T00:11:13.751Z,9.50
2019-03-28T00:13:43.965Z,9.50
2019-03-28T00:16:14.183Z,9.50
2019-03-28T00:18:44.387Z,9.50
2019-03-28T00:21:14.584Z,9.60
2019-03-28T00:23:58.889Z,9.50
2019-03-28T00:26:30.577Z,9.50
2019-03-28T00:29:01.180Z,9.50
2019-03-28T00:31:31.380Z,9.50
2019-03-28T00:34:01.581Z,9.50
2019-03-28T00:36:32.264Z,9.50
2019-03-28T00:39:02.568Z,9.50
2019-03-28T00:41:33.932Z,9.50
2019-03-28T00:44:04.267Z,9.50
2019-03-28T00:46:34.492Z,9.50
2019-03-28T00:49:04.936Z,9.50
2019-03-28T00:51:35.148Z,9.40
2019-03-28T00:54:05.452Z,9.40
2019-03-28T00:56:46.500Z,9.40
2019-03-28T00:59:07.570Z,9.40
2019-03-28T01:01:37.759Z,9.40
2019-03-28T01:04:08.000Z,9.40
2019-03-28T01:06:38.280Z,9.40
2019-03-28T01:09:09.638Z,9.40
2019-03-28T01:11:40.076Z,9.50
2019-03-28T01:14:10.486Z,9.50
2019-03-28T01:16:40.683Z,9.50
2019-03-28T01:19:10.893Z,9.50
2019-03-28T01:21:41.271Z,9.50
2019-03-28T01:24:11.765Z,9.50
2019-03-28T01:26:41.964Z,9.40
2019-03-28T01:29:12.156Z,9.40
2019-03-28T01:31:42.356Z,9.40
2019-03-28T01:34:12.626Z,9.40
2019-03-28T01:36:42.964Z,9.30
2019-03-28T01:39:13.179Z,9.30
2019-03-28T01:41:43.362Z,9.30
2019-03-28T01:44:13.640Z,9.30
2019-03-28T01:46:43.928Z,9.30
2019-03-28T01:49:15.103Z,9.30
2019-03-28T01:52:04.513Z,9.30
2019-03-28T01:54:35.030Z,9.30
2019-03-28T01:57:24.221Z,9.30
2019-03-28T01:59:54.619Z,9.30
2019-03-28T02:02:24.864Z,9.30
2019-03-28T02:04:55.074Z,9.20
2019-03-28T02:07:25.391Z,9.20
2019-03-28T02:09:55.675Z,9.20
2019-03-28T02:12:25.949Z,9.20
2019-03-28T02:14:56.158Z,9.20
2019-03-28T02:17:26.436Z,9.30
2019-03-28T02:19:56.671Z,9.30
2019-03-28T02:22:26.874Z,9.20
2019-03-28T02:24:58.118Z,9.20
2019-03-28T02:27:28.546Z,9.20
2019-03-28T02:29:58.849Z,9.20
2019-03-28T02:32:29.109Z,9.20
2019-03-28T02:34:59.295Z,9.20
2019-03-28T02:37:29.495Z,9.10
2019-03-28T02:39:59.680Z,9.20
2019-03-28T02:42:29.901Z,9.10
2019-03-28T02:45:00.342Z,9.10
2019-03-28T02:47:30.904Z,9.10
2019-03-28T02:50:01.090Z,9.10
2019-03-28T02:52:31.316Z,9.10
2019-03-28T02:55:01.504Z,9.10
2019-03-28T02:57:40.978Z,9.20
2019-03-28T03:00:03.821Z,9.10
2019-03-28T03:02:35.848Z,9.10
2019-03-28T03:05:06.380Z,9.10
2019-03-28T03:07:36.573Z,9.10
2019-03-28T03:10:08.435Z,9.10
2019-03-28T03:12:38.658Z,9.20
2019-03-28T03:15:10.128Z,9.20
2019-03-28T03:17:41.008Z,9.20
2019-03-28T03:20:12.203Z,9.20
2019-03-28T03:22:42.608Z,9.20
2019-03-28T03:25:13.096Z,9.20
2019-03-28T03:27:57.086Z,9.20
2019-03-28T03:30:15.498Z,9.20
2019-03-28T03:32:45.788Z,9.10
2019-03-28T03:35:16.166Z,9.10
2019-03-28T03:37:46.436Z,9.10
2019-03-28T03:40:16.827Z,9.10
2019-03-28T03:42:47.185Z,9.10
2019-03-28T03:45:17.482Z,9.10
2019-03-28T03:47:47.687Z,9.00
2019-03-28T03:50:27.521Z,9.00
2019-03-28T03:52:58.274Z,9.00
2019-03-28T03:55:28.584Z,8.90
2019-03-28T03:58:14.246Z,8.90
2019-03-28T04:00:32.580Z,8.90
2019-03-28T04:03:03.383Z,8.80
2019-03-28T04:05:33.784Z,8.80
2019-03-28T04:08:04.080Z,8.90
2019-03-28T04:10:34.446Z,8.90
2019-03-28T04:13:04.709Z,8.90
2019-03-28T04:15:34.911Z,8.90
2019-03-28T04:18:05.299Z,9.00
2019-03-28T04:20:36.037Z,9.00
2019-03-28T04:23:06.243Z,9.00
2019-03-28T04:25:37.240Z,9.00
2019-03-28T04:28:07.511Z,9.00
2019-03-28T04:30:37.704Z,9.00
2019-03-28T04:33:07.909Z,9.10
2019-03-28T04:35:38.120Z,9.10
2019-03-28T04:38:08.320Z,9.10
2019-03-28T04:40:38.528Z,9.10
2019-03-28T04:43:08.716Z,9.00
2019-03-28T04:45:38.900Z,9.10
2019-03-28T04:48:09.114Z,9.10
2019-03-28T04:50:39.297Z,9.10
2019-03-28T04:53:09.500Z,9.10
2019-03-28T04:55:39.691Z,9.10
2019-03-28T04:58:09.916Z,9.10
2019-03-28T05:00:40.148Z,9.10
2019-03-28T05:03:10.397Z,9.10
2019-03-28T05:05:40.820Z,9.10
2019-03-28T05:08:11.004Z,9.10
2019-03-28T05:10:41.655Z,9.10
2019-03-28T05:13:12.094Z,9.10
2019-03-28T05:15:42.384Z,9.10
2019-03-28T05:18:12.598Z,9.10
2019-03-28T05:20:42.812Z,9.10
2019-03-28T05:23:13.056Z,9.10
2019-03-28T05:25:43.256Z,9.10
2019-03-28T05:28:13.438Z,9.10
2019-03-28T05:30:43.638Z,9.20
2019-03-28T05:33:13.847Z,9.20
2019-03-28T05:35:44.072Z,9.10
2019-03-28T05:38:14.288Z,9.10
2019-03-28T05:40:44.472Z,9.10
2019-03-28T05:43:14.685Z,9.10
2019-03-28T05:45:47.507Z,9.10
2019-03-28T05:48:17.079Z,9.10
2019-03-28T05:50:47.290Z,9.10
2019-03-28T05:53:17.470Z,9.10
2019-03-28T05:55:47.971Z,9.10
2019-03-28T05:58:18.217Z,9.20
2019-03-28T06:00:51.341Z,9.20
2019-03-28T06:03:20.307Z,9.30
2019-03-28T06:05:50.577Z,9.30
2019-03-28T06:08:21.818Z,9.30
2019-03-28T06:10:52.029Z,9.30
2019-03-28T06:13:22.217Z,9.20
2019-03-28T06:15:52.417Z,9.20
2019-03-28T06:18:22.621Z,9.20
2019-03-28T06:20:52.852Z,9.30
2019-03-28T06:23:23.080Z,9.30
2019-03-28T06:25:53.300Z,9.40
2019-03-28T06:28:23.586Z,9.40
2019-03-28T06:30:55.930Z,9.50
2019-03-28T06:33:26.012Z,9.70
2019-03-28T06:35:56.303Z,9.70
2019-03-28T06:38:26.495Z,9.80
2019-03-28T06:40:57.294Z,9.90
2019-03-28T06:43:28.677Z,9.90
2019-03-28T06:45:58.927Z,10.00
2019-03-28T06:48:29.214Z,10.00
2019-03-28T06:50:59.450Z,10.10
2019-03-28T06:53:29.675Z,10.10
2019-03-28T06:55:59.891Z,10.20
2019-03-28T06:58:30.100Z,10.30
2019-03-28T07:01:01.744Z,10.30
2019-03-28T07:03:32.058Z,10.40
2019-03-28T07:06:02.349Z,10.50
2019-03-28T07:08:32.578Z,10.50
2019-03-28T07:11:02.952Z,10.50
2019-03-28T07:13:33.255Z,10.60
2019-03-28T07:16:03.584Z,10.60
2019-03-28T07:18:33.912Z,10.50
2019-03-28T07:21:04.159Z,10.50
2019-03-28T07:23:34.371Z,10.50
2019-03-28T07:26:05.168Z,10.50
2019-03-28T07:28:35.390Z,10.50
2019-03-28T07:31:05.707Z,10.50
2019-03-28T07:33:36.041Z,10.50
2019-03-28T07:36:06.428Z,10.60
2019-03-28T07:38:36.648Z,10.70
2019-03-28T07:41:06.889Z,10.60
2019-03-28T07:43:37.177Z,10.70
2019-03-28T07:46:07.386Z,10.70
2019-03-28T07:48:37.684Z,10.70
2019-03-28T07:51:08.023Z,10.70
2019-03-28T07:53:38.213Z,10.60
2019-03-28T07:56:08.423Z,10.60
2019-03-28T07:58:38.623Z,10.70
2019-03-28T08:01:08.871Z,10.70
2019-03-28T08:03:40.093Z,10.80
2019-03-28T08:06:12.744Z,10.90
2019-03-28T08:08:44.160Z,10.90
2019-03-28T08:11:14.411Z,10.90
2019-03-28T08:13:44.676Z,10.90
2019-03-28T08:16:14.888Z,11.00
2019-03-28T08:18:45.449Z,11.10
2019-03-28T08:21:15.835Z,11.00
2019-03-28T08:23:46.285Z,11.10
2019-03-28T08:26:16.564Z,11.20
2019-03-28T08:28:46.784Z,11.30
2019-03-28T08:31:17.197Z,11.50
2019-03-28T08:33:47.929Z,11.60
2019-03-28T08:36:18.469Z,11.70
2019-03-28T08:38:51.950Z,11.90
2019-03-28T08:41:22.245Z,12.00
2019-03-28T08:43:52.480Z,12.10
2019-03-28T08:46:22.753Z,12.10
2019-03-28T08:48:52.968Z,12.10
2019-03-28T08:51:23.196Z,12.10
2019-03-28T08:53:53.827Z,12.10
2019-03-28T08:56:24.194Z,12.00
2019-03-28T08:58:54.480Z,11.90
2019-03-28T09:01:26.047Z,11.80
2019-03-28T09:03:56.261Z,11.70
2019-03-28T09:06:26.553Z,11.50
2019-03-28T09:08:56.892Z,11.50
2019-03-28T09:11:27.125Z,11.30
2019-03-28T09:13:57.350Z,11.10
2019-03-28T09:16:27.709Z,11.00
2019-03-28T09:18:57.913Z,10.90
2019-03-28T09:21:28.299Z,10.90
2019-03-28T09:23:58.532Z,10.90
2019-03-28T09:26:28.821Z,11.00
2019-03-28T09:28:59.046Z,11.10
2019-03-28T09:31:29.261Z,11.20
2019-03-28T09:33:59.565Z,11.30
2019-03-28T09:36:29.966Z,11.40
2019-03-28T09:39:00.192Z,11.40
2019-03-28T09:41:30.499Z,11.40
2019-03-28T09:44:01.761Z,11.30
2019-03-28T09:46:32.028Z,11.30
2019-03-28T09:49:02.296Z,11.20
2019-03-28T09:51:35.017Z,11.10
2019-03-28T09:54:04.464Z,11.10
2019-03-28T09:56:34.689Z,11.20
2019-03-28T09:59:04.884Z,11.20
2019-03-28T10:01:35.107Z,11.20
2019-03-28T10:04:06.598Z,11.20
2019-03-28T10:06:37.205Z,11.30
2019-03-28T10:09:08.164Z,11.30
2019-03-28T10:11:38.473Z,11.40
2019-03-28T10:14:08.747Z,11.50
2019-03-28T10:16:40.431Z,11.40
2019-03-28T10:19:10.724Z,11.40
2019-03-28T10:21:41.032Z,11.50
2019-03-28T10:24:11.626Z,11.60
2019-03-28T10:26:42.120Z,11.70
2019-03-28T10:29:12.498Z,11.70
2019-03-28T10:31:42.712Z,11.70
2019-03-28T10:34:12.915Z,11.70
2019-03-28T10:36:43.112Z,11.60
2019-03-28T10:39:13.296Z,11.60
2019-03-28T10:41:43.483Z,11.70
2019-03-28T10:44:13.701Z,11.80
2019-03-28T10:46:43.901Z,11.80
2019-03-28T10:49:14.105Z,11.60
2019-03-28T10:51:44.384Z,11.40
2019-03-28T10:54:20.636Z,11.40
2019-03-28T10:56:51.981Z,11.30
2019-03-28T10:59:23.527Z,11.30
2019-03-28T11:01:51.129Z,11.40
2019-03-28T11:04:22.575Z,11.60
2019-03-28T11:06:53.126Z,11.80
2019-03-28T11:09:23.572Z,11.90
2019-03-28T11:11:53.982Z,11.90
2019-03-28T11:14:24.180Z,11.70
2019-03-28T11:16:54.411Z,11.80
2019-03-28T11:19:24.652Z,11.90
2019-03-28T11:21:54.949Z,11.90
2019-03-28T11:24:25.166Z,11.80
2019-03-28T11:26:55.397Z,11.70
2019-03-28T11:29:25.636Z,11.90
2019-03-28T11:31:55.836Z,12.10
2019-03-28T11:34:26.015Z,12.20
2019-03-28T11:36:56.188Z,12.30
2019-03-28T11:39:26.399Z,12.30
2019-03-28T11:41:56.573Z,12.40
2019-03-28T11:44:26.756Z,12.50
2019-03-28T11:46:57.007Z,12.50
2019-03-28T11:49:27.339Z,12.40
2019-03-28T11:51:57.771Z,12.30
2019-03-28T11:54:27.972Z,12.30
2019-03-28T11:56:58.184Z,12.30
2019-03-28T11:59:28.371Z,12.20
2019-03-28T12:02:00.520Z,12.20
2019-03-28T12:04:30.764Z,12.20
2019-03-28T12:07:00.990Z,12.20
2019-03-28T12:09:31.267Z,12.30
2019-03-28T12:12:01.592Z,12.30
2019-03-28T12:14:31.807Z,12.50
2019-03-28T12:17:02.000Z,12.60
2019-03-28T12:19:32.200Z,12.70
2019-03-28T12:22:02.406Z,12.90
2019-03-28T12:24:32.671Z,13.00
2019-03-28T12:27:02.886Z,13.00
2019-03-28T12:29:35.805Z,13.10
2019-03-28T12:32:14.030Z,13.10
2019-03-28T12:34:36.986Z,13.20
2019-03-28T12:37:07.180Z,13.20
2019-03-28T12:39:37.417Z,13.10
2019-03-28T12:42:07.687Z,13.00
2019-03-28T12:44:37.869Z,13.00
2019-03-28T12:47:09.224Z,12.90
2019-03-28T12:49:39.440Z,12.90
2019-03-28T12:52:09.631Z,12.90
2019-03-28T12:54:39.800Z,13.10
2019-03-28T12:57:10.037Z,13.10
2019-03-28T12:59:40.610Z,13.30
2019-03-28T13:02:11.024Z,13.30
2019-03-28T13:04:41.208Z,13.40
2019-03-28T13:07:11.412Z,13.40
2019-03-28T13:09:41.604Z,13.40
2019-03-28T13:12:13.496Z,13.20
2019-03-28T13:14:43.678Z,13.20
2019-03-28T13:17:13.844Z,13.10
2019-03-28T13:19:44.080Z,13.30
2019-03-28T13:22:14.556Z,13.50
2019-03-28T13:24:44.760Z,13.60
2019-03-28T13:27:14.966Z,13.40
2019-03-28T13:29:45.167Z,13.40
2019-03-28T13:32:15.377Z,13.40
2019-03-28T13:34:46.474Z,13.60
2019-03-28T13:37:17.596Z,13.50
2019-03-28T13:39:47.734Z,13.50
2019-03-28T13:42:17.916Z,13.60
2019-03-28T13:44:48.687Z,13.60
2019-03-28T13:47:19.051Z,13.60
2019-03-28T13:49:49.226Z,13.40
2019-03-28T13:52:19.391Z,13.10
2019-03-28T13:54:52.879Z,12.90
2019-03-28T13:57:21.952Z,12.70
2019-03-28T13:59:52.222Z,12.50
2019-03-28T14:02:22.386Z,12.50
2019-03-28T14:04:52.594Z,12.70
2019-03-28T14:07:22.971Z,12.80
2019-03-28T14:09:53.417Z,12.90
2019-03-28T14:12:23.621Z,12.90
2019-03-28T14:14:53.781Z,12.80
2019-03-28T14:17:23.923Z,12.80
2019-03-28T14:19:54.062Z,12.90
2019-03-28T14:22:24.206Z,12.90
2019-03-28T14:24:54.415Z,13.00
2019-03-28T14:27:24.590Z,13.00
2019-03-28T14:29:54.745Z,13.10
2019-03-28T14:32:24.907Z,13.10
2019-03-28T14:34:55.049Z,13.10
2019-03-28T14:37:25.194Z,13.00
2019-03-28T14:39:55.347Z,12.90
2019-03-28T14:42:25.511Z,12.80
2019-03-28T14:44:55.643Z,12.80
2019-03-28T14:47:25.798Z,12.70
2019-03-28T14:49:55.975Z,12.80
2019-03-28T14:52:26.135Z,13.00
2019-03-28T14:54:56.362Z,13.00
2019-03-28T14:57:27.029Z,13.10
2019-03-28T15:00:17.682Z,13.20
2019-03-28T15:02:47.851Z,13.20
2019-03-28T15:05:17.997Z,13.30
2019-03-28T15:07:48.138Z,13.30
2019-03-28T15:10:18.378Z,13.20
2019-03-28T15:12:48.539Z,13.00
2019-03-28T15:15:18.672Z,12.90
2019-03-28T15:17:48.885Z,12.80
2019-03-28T15:20:19.069Z,12.80
2019-03-28T15:22:49.250Z,12.90
2019-03-28T15:25:19.497Z,13.10
2019-03-28T15:27:49.648Z,13.10
2019-03-28T15:30:19.994Z,13.20
2019-03-28T15:32:50.250Z,13.20
2019-03-28T15:35:20.487Z,13.20
2019-03-28T15:37:50.631Z,13.10
2019-03-28T15:40:20.798Z,13.00
2019-03-28T15:42:50.980Z,12.90
2019-03-28T15:45:21.258Z,12.90
2019-03-28T15:47:52.230Z,12.80
2019-03-28T15:50:22.573Z,12.80
2019-03-28T15:52:52.804Z,12.80
2019-03-28T15:55:22.938Z,12.80
2019-03-28T15:57:53.182Z,12.80
2019-03-28T16:00:23.311Z,12.90
2019-03-28T16:02:53.581Z,12.90
2019-03-28T16:05:23.734Z,13.00
2019-03-28T16:07:53.895Z,13.10
2019-03-28T16:10:24.093Z,13.20
2019-03-28T16:12:54.315Z,13.00
2019-03-28T16:15:24.962Z,12.90
2019-03-28T16:17:57.544Z,12.90
2019-03-28T16:20:26.974Z,12.90
2019-03-28T16:22:57.153Z,12.80
2019-03-28T16:25:28.375Z,12.80
2019-03-28T16:27:58.561Z,12.70
2019-03-28T16:30:36.820Z,12.60
2019-03-28T16:33:08.394Z,12.60
2019-03-28T16:35:38.570Z,12.60
2019-03-28T16:38:08.870Z,12.50
2019-03-28T16:40:39.385Z,12.50
2019-03-28T16:43:09.902Z,12.50
2019-03-28T16:45:40.450Z,12.50
2019-03-28T16:48:10.750Z,12.50
2019-03-28T16:50:40.917Z,12.60
2019-03-28T16:53:11.065Z,12.60
2019-03-28T16:55:41.232Z,12.60
2019-03-28T16:58:11.370Z,12.50
2019-03-28T17:00:41.896Z,12.50
2019-03-28T17:03:12.252Z,12.40
2019-03-28T17:05:42.494Z,12.30
2019-03-28T17:08:13.711Z,12.20
2019-03-28T17:10:54.578Z,12.20
2019-03-28T17:13:24.819Z,12.10
2019-03-28T17:15:55.066Z,12.10
2019-03-28T17:18:25.217Z,12.10
2019-03-28T17:20:55.544Z,12.00
2019-03-28T17:23:25.710Z,12.00
2019-03-28T17:25:55.906Z,12.00
2019-03-28T17:28:26.082Z,11.90
2019-03-28T17:30:56.225Z,11.80
2019-03-28T17:33:26.414Z,11.80
2019-03-28T17:35:56.538Z,11.70
2019-03-28T17:38:26.789Z,11.60
2019-03-28T17:40:56.946Z,11.60
2019-03-28T17:43:27.105Z,11.60
2019-03-28T17:45:57.267Z,11.60
2019-03-28T17:48:28.606Z,11.50
2019-03-28T17:50:59.129Z,11.40
2019-03-28T17:53:29.277Z,11.40
2019-03-28T17:55:59.434Z,11.40
2019-03-28T17:58:29.588Z,11.40
2019-03-28T18:00:59.769Z,11.30
2019-03-28T18:03:31.345Z,11.20
2019-03-28T18:06:01.979Z,11.20
2019-03-28T18:08:32.233Z,11.20
2019-03-28T18:11:02.427Z,11.30
2019-03-28T18:13:32.603Z,11.30
2019-03-28T18:16:02.753Z,11.30
2019-03-28T18:18:32.921Z,11.40
2019-03-28T18:21:03.312Z,11.40
2019-03-28T18:23:33.491Z,11.30
2019-03-28T18:26:04.002Z,11.20
2019-03-28T18:28:34.158Z,11.20
2019-03-28T18:31:04.327Z,11.20
2019-03-28T18:33:34.515Z,11.20
2019-03-28T18:36:05.060Z,11.20
2019-03-28T18:38:35.238Z,11.20
2019-03-28T18:41:05.616Z,11.20
2019-03-28T18:43:35.874Z,11.10
2019-03-28T18:46:06.026Z,11.10
2019-03-28T18:48:36.819Z,11.10
2019-03-28T18:51:07.019Z,11.00
2019-03-28T18:53:37.170Z,11.00
2019-03-28T18:56:07.494Z,11.00
2019-03-28T18:58:37.658Z,11.00
2019-03-28T19:01:07.818Z,11.00
2019-03-28T19:03:38.002Z,11.00
2019-03-28T19:06:09.215Z,11.00
2019-03-28T19:08:39.446Z,11.10
2019-03-28T19:11:09.621Z,11.10
2019-03-28T19:13:39.818Z,11.10
2019-03-28T19:16:10.214Z,11.20
2019-03-28T19:18:40.386Z,11.20
2019-03-28T19:21:10.617Z,11.20
2019-03-28T19:23:40.857Z,11.20
2019-03-28T19:26:11.237Z,11.20
2019-03-28T19:28:42.640Z,11.20
2019-03-28T19:31:12.829Z,11.10
2019-03-28T19:33:43.028Z,11.20
2019-03-28T19:36:13.902Z,11.20
2019-03-28T19:38:44.334Z,11.20
2019-03-28T19:41:14.610Z,11.10
2019-03-28T19:43:45.069Z,11.10
2019-03-28T19:46:15.243Z,11.10
2019-03-28T19:48:45.520Z,11.10
2019-03-28T19:51:15.955Z,11.30
2019-03-28T19:53:46.154Z,11.10
2019-03-28T19:56:16.301Z,11.10
2019-03-28T19:58:46.598Z,11.10
2019-03-28T20:01:16.830Z,11.10
2019-03-28T20:03:47.197Z,11.10
2019-03-28T20:06:22.317Z,11.10
2019-03-28T20:08:49.445Z,11.10
2019-03-28T20:11:19.715Z,11.10
2019-03-28T20:13:50.268Z,11.00
2019-03-28T20:16:20.679Z,11.00
2019-03-28T20:18:50.926Z,10.90
2019-03-28T20:21:21.118Z,10.80
2019-03-28T20:23:51.306Z,10.70
2019-03-28T20:26:21.490Z,10.70
2019-03-28T20:28:51.738Z,10.80
2019-03-28T20:31:21.892Z,10.80
2019-03-28T20:33:52.056Z,10.70
2019-03-28T20:36:36.946Z,10.70
2019-03-28T20:39:04.027Z,10.70
2019-03-28T20:41:26.104Z,10.60
2019-03-28T20:43:56.363Z,10.50
2019-03-28T20:46:26.523Z,10.50
2019-03-28T20:48:56.670Z,10.40
2019-03-28T20:51:27.014Z,10.30
2019-03-28T20:53:57.342Z,10.20
2019-03-28T20:56:27.514Z,10.00
2019-03-28T20:58:57.679Z,9.90
2019-03-28T21:01:27.855Z,9.80
2019-03-28T21:03:58.502Z,9.70
2019-03-28T21:06:28.783Z,9.70
2019-03-28T21:08:59.047Z,9.70
2019-03-28T21:11:29.581Z,9.60
2019-03-28T21:13:59.980Z,9.60
2019-03-28T21:16:30.173Z,9.50
2019-03-28T21:19:00.339Z,9.50
2019-03-28T21:21:30.490Z,9.50
2019-03-28T21:24:00.641Z,9.40
2019-03-28T21:26:30.775Z,9.40
2019-03-28T21:29:00.982Z,9.30
2019-03-28T21:31:31.167Z,9.30
2019-03-28T21:34:01.307Z,9.20
2019-03-28T21:36:32.226Z,9.10
2019-03-28T21:39:02.783Z,9.10
2019-03-28T21:41:34.594Z,9.10
2019-03-28T21:44:05.154Z,9.00
2019-03-28T21:46:35.300Z,9.00
2019-03-28T21:49:05.457Z,9.00
2019-03-28T21:51:35.594Z,9.00
2019-03-28T21:54:05.878Z,9.00
2019-03-28T21:56:36.040Z,8.90
2019-03-28T21:59:06.169Z,8.90
2019-03-28T22:01:36.299Z,8.90
2019-03-28T22:04:06.446Z,8.80
2019-03-28T22:06:42.744Z,8.80
2019-03-28T22:09:08.617Z,8.80
2019-03-28T22:11:39.147Z,8.70
2019-03-28T22:14:09.371Z,8.70
2019-03-28T22:16:39.574Z,8.60
2019-03-28T22:19:09.832Z,8.60
2019-03-28T22:21:39.990Z,8.50
2019-03-28T22:24:10.181Z,8.50
2019-03-28T22:26:40.474Z,8.40
2019-03-28T22:29:10.598Z,8.40
2019-03-28T22:31:40.727Z,8.30
2019-03-28T22:34:11.104Z,8.30
2019-03-28T22:36:41.450Z,8.30
2019-03-28T22:39:12.171Z,8.20
2019-03-28T22:41:43.021Z,8.20
2019-03-28T22:44:14.361Z,8.10
2019-03-28T22:46:45.687Z,8.00
2019-03-28T22:49:15.849Z,8.00
2019-03-28T22:51:45.985Z,8.00
2019-03-28T22:54:16.129Z,7.90
2019-03-28T22:56:46.351Z,7.90
2019-03-28T22:59:16.485Z,7.90
2019-03-28T23:01:46.728Z,7.90
2019-03-28T23:04:17.045Z,7.80
2019-03-28T23:06:47.197Z,7.80
2019-03-28T23:09:17.425Z,7.80
2019-03-28T23:11:47.577Z,7.80
2019-03-28T23:14:18.954Z,7.80
2019-03-28T23:16:49.295Z,7.80
2019-03-28T23:19:19.442Z,7.70
2019-03-28T23:21:49.587Z,7.60
2019-03-28T23:24:19.733Z,7.60
2019-03-28T23:26:49.962Z,7.50
2019-03-28T23:29:20.122Z,7.40
2019-03-28T23:31:50.828Z,7.30
2019-03-28T23:34:21.093Z,7.30
2019-03-28T23:36:51.245Z,7.30
2019-03-28T23:39:21.385Z,7.20
2019-03-28T23:41:51.564Z,7.20
2019-03-28T23:44:21.702Z,7.20
2019-03-28T23:46:51.873Z,7.10
2019-03-28T23:49:22.065Z,7.10
2019-03-28T23:51:52.225Z,7.00
2019-03-28T23:54:22.398Z,6.90
2019-03-28T23:56:53.755Z,6.90
2019-03-28T23:59:23.905Z,6.80
